This is the latest recevied weather packets stored in our database for station/object WD0REW. If no packets are shown the sender has not sent any weather packets the latest 10 day(s).
| Time | Temp. | Humidity | Pressure | Rain* | Wind** | Luminosity | Snow |
|---|---|---|---|---|---|---|---|
| 1777814244 | 11.67° C | 63% | 1019.8 hPa | 0 mm | - | 141 W/m² | - |
| 1777813941 | 11.11° C | 66% | 1019.5 hPa | 0 mm | - | 119 W/m² | - |
| 1777813639 | 10.56° C | 68% | 1019.8 hPa | 0 mm | - | 102 W/m² | - |
| 1777813336 | 10° C | 70% | 1019.7 hPa | 0 mm | - | 89 W/m² | - |
| 1777813033 | 9.44° C | 72% | 1019.7 hPa | 0 mm | - | 79 W/m² | - |
| 1777812731 | 8.33° C | 77% | 1019.7 hPa | 0 mm | - | 68 W/m² | - |
| 1777812427 | 7.22° C | 84% | 1019.8 hPa | 0 mm | - | 66 W/m² | - |
| 1777812125 | 6.11° C | 89% | 1019.7 hPa | 0 mm | - | 61 W/m² | - |
| 1777811823 | 5.56° C | 93% | 1019.7 hPa | 0 mm | - | 29 W/m² | - |
| 1777811521 | 5° C | 95% | 1019.7 hPa | 0 mm | - | 30 W/m² | - |
| 1777811216 | 5° C | 96% | 1020 hPa | 0 mm | - | 25 W/m² | - |
| 1777810914 | 4.44° C | 96% | 1019.9 hPa | 0 mm | - | 23 W/m² | - |
| 1777810610 | 3.89° C | 96% | 1019.8 hPa | 0 mm | - | 22 W/m² | - |
| 1777810308 | 3.89° C | 96% | 1019.9 hPa | 0 mm | - | 20 W/m² | - |
| 1777810003 | 3.89° C | 96% | 1019.7 hPa | 0 mm | - | 19 W/m² | - |
| 1777809701 | 3.33° C | 96% | 1019.8 hPa | 0 mm | - | 17 W/m² | - |
| 1777809398 | 3.33° C | 96% | 1019.7 hPa | 0 mm | - | 16 W/m² | - |
| 1777809096 | 3.33° C | 96% | 1019.6 hPa | 0 mm | - | 14 W/m² | - |
| 1777808793 | 2.78° C | 95% | 1019.7 hPa | 0 mm | - | 12 W/m² | - |
| 1777808490 | 2.78° C | 95% | 1019.9 hPa | 0 mm | - | 10 W/m² | - |
| 1777808188 | 2.78° C | 95% | 1019.9 hPa | 0 mm | - | 8 W/m² | - |
| 1777807886 | 2.78° C | 95% | 1020 hPa | 0 mm | - | 6 W/m² | - |
| 1777807584 | 2.78° C | 95% | 1019.7 hPa | 0 mm | - | 5 W/m² | - |
| 1777807281 | 2.78° C | 95% | 1019.9 hPa | 0 mm | - | 3 W/m² | - |
| 1777806976 | 2.78° C | 95% | 1019.7 hPa | 0 mm | - | 2 W/m² | - |
* Rain latest hour (hover to see other rain measurements)
** Current wind speed in m/s (hover to see current wind gust speed)